Wetterdaten: Woche 07.01.19 - 13.01.19 (KW2)
Datum Zeit Temperatur Luftfeuchte Luftdruck Niederschlag Windrichtung Sonnenschein Solar Wind
07.01.2019 00:00 0,3 C 99 % 1032,1 hPa 0,0 l/m N 0,00 h 0 W/m 0,0 km/h (0 Bft)
07.01.2019 01:00 0,3 C 99 % 1032,3 hPa 0,0 l/m W-SW 0,00 h 0 W/m 1,3 km/h (1 Bft)
07.01.2019 02:00 0,3 C 99 % 1032,7 hPa 0,0 l/m W-SW 0,00 h 0 W/m 0,9 km/h (0 Bft)
07.01.2019 03:00 0,3 C 99 % 1032,6 hPa 0,0 l/m N 0,00 h 0 W/m 0,0 km/h (0 Bft)
07.01.2019 04:00 0,4 C 99 % 1032,3 hPa 0,0 l/m N 0,00 h 0 W/m 0,0 km/h (0 Bft)
07.01.2019 05:00 0,4 C 100 % 1032,0 hPa 0,0 l/m N 0,00 h 0 W/m 0,0 km/h (0 Bft)
07.01.2019 06:00 0,4 C 100 % 1032,1 hPa 0,0 l/m N 0,00 h 0 W/m 0,0 km/h (0 Bft)
07.01.2019 07:00 0,5 C 99 % 1032,3 hPa 0,0 l/m N 0,00 h 0 W/m 0,0 km/h (0 Bft)
07.01.2019 08:00 0,5 C 99 % 1032,6 hPa 0,0 l/m N 0,00 h 10 W/m 0,0 km/h (0 Bft)
07.01.2019 09:00 0,8 C 100 % 1032,9 hPa 0,0 l/m N 0,00 h 66 W/m 0,0 km/h (0 Bft)
07.01.2019 10:00 1,2 C 100 % 1033,1 hPa 0,0 l/m W-SW 0,00 h 104 W/m 1,2 km/h (1 Bft)
07.01.2019 11:00 1,4 C 100 % 1032,8 hPa 0,0 l/m W-SW 0,42 h 182 W/m 1,6 km/h (1 Bft)
07.01.2019 12:00 1,6 C 99 % 1032,5 hPa 0,0 l/m N 0,00 h 162 W/m 1,9 km/h (1 Bft)
07.01.2019 13:00 2,3 C 98 % 1031,9 hPa 0,0 l/m W-SW 0,67 h 213 W/m 3,5 km/h (1 Bft)
07.01.2019 14:00 2,0 C 97 % 1031,6 hPa 0,0 l/m W-SW 0,00 h 97 W/m 3,1 km/h (1 Bft)
07.01.2019 15:00 1,7 C 98 % 1031,6 hPa 0,0 l/m W-SW 0,00 h 55 W/m 3,5 km/h (1 Bft)
07.01.2019 16:00 1,7 C 98 % 1031,6 hPa 0,0 l/m W-SW 0,00 h 12 W/m 1,7 km/h (1 Bft)
07.01.2019 17:00 1,3 C 98 % 1031,4 hPa 0,0 l/m W-SW 0,00 h 0 W/m 2,7 km/h (1 Bft)
07.01.2019 18:00 1,1 C 98 % 1031,3 hPa 0,0 l/m W-SW 0,00 h 0 W/m 4,9 km/h (1 Bft)
07.01.2019 19:00 1,0 C 98 % 1030,9 hPa 0,0 l/m W-SW 0,00 h 0 W/m 4,4 km/h (1 Bft)
07.01.2019 20:00 0,8 C 98 % 1030,3 hPa 0,0 l/m W-SW 0,00 h 0 W/m 10,1 km/h (2 Bft)
07.01.2019 21:00 0,5 C 98 % 1029,6 hPa 0,0 l/m SW 0,00 h 0 W/m 9,1 km/h (2 Bft)
07.01.2019 22:00 0,6 C 98 % 1028,9 hPa 0,0 l/m SW 0,00 h 0 W/m 8,4 km/h (2 Bft)
07.01.2019 23:00 0,6 C 98 % 1028,0 hPa 0,2 l/m W-SW 0,00 h 0 W/m 16,2 km/h (3 Bft)
08.01.2019 00:00 0,6 C 97 % 1027,2 hPa 0,0 l/m SW 0,00 h 0 W/m 19,7 km/h (3 Bft)
08.01.2019 01:00 0,6 C 96 % 1026,1 hPa 0,2 l/m W-SW 0,00 h 0 W/m 24,0 km/h (4 Bft)
08.01.2019 02:00 0,5 C 97 % 1025,1 hPa 0,2 l/m W-SW 0,00 h 0 W/m 27,6 km/h (4 Bft)
08.01.2019 03:00 0,3 C 97 % 1024,0 hPa 0,2 l/m W-SW 0,00 h 0 W/m 26,8 km/h (4 Bft)
08.01.2019 04:00 0,1 C 97 % 1022,7 hPa 0,4 l/m SW 0,00 h 0 W/m 31,4 km/h (5 Bft)
08.01.2019 05:00 0,2 C 98 % 1021,6 hPa 0,0 l/m W-SW 0,00 h 0 W/m 33,0 km/h (5 Bft)
08.01.2019 06:00 0,4 C 97 % 1020,4 hPa 0,0 l/m W-SW 0,00 h 0 W/m 34,3 km/h (5 Bft)
08.01.2019 07:00 0,6 C 97 % 1019,7 hPa 0,0 l/m W-SW 0,00 h 0 W/m 32,6 km/h (5 Bft)
08.01.2019 08:00 0,9 C 97 % 1019,5 hPa 0,0 l/m W-SW 0,00 h 17 W/m 29,1 km/h (5 Bft)
08.01.2019 09:00 1,4 C 97 % 1019,6 hPa 0,0 l/m W-SW 0,00 h 47 W/m 27,2 km/h (4 Bft)
08.01.2019 10:00 1,8 C 96 % 1019,3 hPa 0,0 l/m W 0,00 h 70 W/m 29,8 km/h (5 Bft)
08.01.2019 11:00 2,1 C 95 % 1018,9 hPa 0,0 l/m W 0,33 h 160 W/m 22,8 km/h (4 Bft)
08.01.2019 12:00 2,4 C 95 % 1018,4 hPa 0,0 l/m W-NW 0,08 h 160 W/m 23,6 km/h (4 Bft)
08.01.2019 13:00 2,9 C 94 % 1017,5 hPa 0,0 l/m W 0,58 h 191 W/m 20,1 km/h (4 Bft)
08.01.2019 14:00 3,4 C 91 % 1016,8 hPa 0,0 l/m W 0,33 h 150 W/m 25,1 km/h (4 Bft)
08.01.2019 15:00 3,0 C 90 % 1016,5 hPa 0,0 l/m W 0,00 h 57 W/m 29,4 km/h (5 Bft)
08.01.2019 16:00 2,6 C 91 % 1016,2 hPa 0,0 l/m W 0,00 h 13 W/m 27,1 km/h (4 Bft)
08.01.2019 17:00 2,4 C 91 % 1016,2 hPa 0,0 l/m W 0,00 h 0 W/m 27,1 km/h (4 Bft)
08.01.2019 18:00 2,1 C 92 % 1016,0 hPa 0,0 l/m W 0,00 h 0 W/m 27,9 km/h (4 Bft)
08.01.2019 19:00 1,7 C 94 % 1016,1 hPa 0,4 l/m W 0,00 h 0 W/m 25,6 km/h (4 Bft)
08.01.2019 20:00 1,4 C 95 % 1016,1 hPa 0,4 l/m W-SW 0,00 h 0 W/m 24,0 km/h (4 Bft)
08.01.2019 21:00 1,3 C 96 % 1015,8 hPa 0,2 l/m W 0,00 h 0 W/m 22,5 km/h (4 Bft)
08.01.2019 22:00 1,4 C 96 % 1015,5 hPa 0,0 l/m W 0,00 h 0 W/m 24,0 km/h (4 Bft)
08.01.2019 23:00 1,3 C 96 % 1015,0 hPa 0,4 l/m W-NW 0,00 h 0 W/m 18,2 km/h (3 Bft)
09.01.2019 00:00 1,1 C 96 % 1014,3 hPa 0,0 l/m W-NW 0,00 h 0 W/m 21,9 km/h (4 Bft)
09.01.2019 01:00 1,0 C 96 % 1013,9 hPa 0,0 l/m W 0,00 h 0 W/m 19,8 km/h (4 Bft)
09.01.2019 02:00 0,7 C 96 % 1013,4 hPa 0,0 l/m W-NW 0,00 h 0 W/m 19,8 km/h (4 Bft)
09.01.2019 03:00 0,7 C 95 % 1013,0 hPa 0,0 l/m W-NW 0,00 h 0 W/m 20,6 km/h (4 Bft)
09.01.2019 04:00 0,6 C 96 % 1012,3 hPa 0,4 l/m W 0,00 h 0 W/m 20,8 km/h (4 Bft)
09.01.2019 05:00 0,4 C 96 % 1011,5 hPa 0,0 l/m W-NW 0,00 h 0 W/m 20,0 km/h (4 Bft)
09.01.2019 06:00 0,3 C 97 % 1011,1 hPa 0,6 l/m W 0,00 h 0 W/m 14,5 km/h (3 Bft)
09.01.2019 07:00 0,3 C 97 % 1011,0 hPa 0,0 l/m W-NW 0,00 h 0 W/m 13,2 km/h (3 Bft)
09.01.2019 08:00 -0,0 C 97 % 1011,1 hPa 0,0 l/m W-NW 0,00 h 10 W/m 13,6 km/h (3 Bft)
09.01.2019 09:00 -0,0 C 97 % 1011,7 hPa 1,4 l/m N-NO 0,00 h 13 W/m 13,6 km/h (3 Bft)
09.01.2019 10:00 0,1 C 97 % 1011,6 hPa 1,6 l/m N-NW 0,00 h 47 W/m 9,4 km/h (2 Bft)
09.01.2019 11:00 0,5 C 97 % 1012,1 hPa 0,6 l/m NW 0,00 h 65 W/m 18,1 km/h (3 Bft)
09.01.2019 12:00 0,4 C 96 % 1012,2 hPa 0,0 l/m NW 0,00 h 103 W/m 18,4 km/h (3 Bft)
09.01.2019 13:00 0,6 C 94 % 1011,8 hPa 0,0 l/m N-NW 0,00 h 104 W/m 13,1 km/h (3 Bft)
09.01.2019 14:00 0,4 C 93 % 1012,2 hPa 0,2 l/m W-NW 0,00 h 63 W/m 11,9 km/h (2 Bft)
09.01.2019 15:00 -0,0 C 93 % 1012,5 hPa 0,0 l/m N-NW 0,00 h 46 W/m 6,8 km/h (2 Bft)
09.01.2019 16:00 -0,3 C 93 % 1012,7 hPa 0,2 l/m NW 0,00 h 11 W/m 5,8 km/h (2 Bft)
09.01.2019 17:00 -0,9 C 94 % 1013,3 hPa 0,0 l/m N-NW 0,00 h 0 W/m 11,1 km/h (2 Bft)
09.01.2019 18:00 -1,2 C 94 % 1014,0 hPa 0,6 l/m N 0,00 h 0 W/m 0,0 km/h (0 Bft)
09.01.2019 19:00 -1,3 C 95 % 1014,3 hPa 0,6 l/m N 0,00 h 0 W/m 0,3 km/h (0 Bft)
09.01.2019 20:00 -1,5 C 95 % 1014,7 hPa 0,2 l/m N 0,00 h 0 W/m 3,1 km/h (1 Bft)
09.01.2019 21:00 -1,7 C 96 % 1015,2 hPa 0,0 l/m N 0,00 h 0 W/m 1,2 km/h (1 Bft)
09.01.2019 22:00 -1,8 C 96 % 1015,8 hPa 0,2 l/m N 0,00 h 0 W/m 0,4 km/h (0 Bft)
09.01.2019 23:00 -1,9 C 96 % 1016,1 hPa 0,0 l/m N-NW 0,00 h 0 W/m 2,0 km/h (1 Bft)
10.01.2019 00:00 -2,1 C 96 % 1016,1 hPa 0,0 l/m NW 0,00 h 0 W/m 6,3 km/h (2 Bft)
10.01.2019 01:00 -2,2 C 96 % 1016,6 hPa 0,0 l/m N 0,00 h 0 W/m 3,7 km/h (1 Bft)
10.01.2019 02:00 -2,1 C 96 % 1017,2 hPa 0,2 l/m NW 0,00 h 0 W/m 5,1 km/h (1 Bft)
10.01.2019 03:00 -2,1 C 97 % 1017,8 hPa 0,2 l/m NW 0,00 h 0 W/m 4,8 km/h (1 Bft)
10.01.2019 04:00 -2,0 C 97 % 1017,8 hPa 0,4 l/m N 0,00 h 0 W/m 2,0 km/h (1 Bft)
10.01.2019 05:00 -1,9 C 97 % 1017,9 hPa 0,6 l/m N 0,00 h 0 W/m 0,4 km/h (0 Bft)
10.01.2019 06:00 -1,9 C 97 % 1018,3 hPa 0,4 l/m N 0,00 h 0 W/m 0,4 km/h (0 Bft)
10.01.2019 07:00 -1,8 C 97 % 1019,0 hPa 0,6 l/m N 0,00 h 0 W/m 0,0 km/h (0 Bft)
10.01.2019 08:00 -1,8 C 97 % 1019,4 hPa 0,2 l/m N 0,00 h 5 W/m 0,4 km/h (0 Bft)
10.01.2019 09:00 -1,4 C 98 % 1019,9 hPa 0,2 l/m N 0,00 h 10 W/m 1,9 km/h (1 Bft)
10.01.2019 10:00 -0,8 C 98 % 1020,5 hPa 0,4 l/m NW 0,00 h 16 W/m 1,2 km/h (1 Bft)
10.01.2019 11:00 -0,1 C 98 % 1020,8 hPa 0,2 l/m NW 0,00 h 20 W/m 5,8 km/h (1 Bft)
10.01.2019 12:00 0,2 C 98 % 1020,7 hPa 0,2 l/m N 0,00 h 21 W/m 10,3 km/h (2 Bft)
10.01.2019 13:00 0,2 C 97 % 1020,7 hPa 0,2 l/m N-NO 0,00 h 25 W/m 12,6 km/h (3 Bft)
10.01.2019 14:00 0,0 C 97 % 1021,0 hPa 0,6 l/m N-NO 0,00 h 14 W/m 9,0 km/h (2 Bft)
10.01.2019 15:00 -0,1 C 97 % 1021,3 hPa 0,0 l/m N-NO 0,00 h 10 W/m 7,1 km/h (2 Bft)
10.01.2019 16:00 -0,5 C 97 % 1021,9 hPa 0,2 l/m N 0,00 h 5 W/m 1,3 km/h (1 Bft)
10.01.2019 17:00 -0,8 C 97 % 1022,3 hPa 0,4 l/m N-NO 0,00 h 0 W/m 2,5 km/h (1 Bft)
10.01.2019 18:00 -1,2 C 97 % 1022,8 hPa 0,0 l/m N-NO 0,00 h 0 W/m 1,3 km/h (1 Bft)
10.01.2019 19:00 -1,4 C 97 % 1023,3 hPa 0,0 l/m N-NO 0,00 h 0 W/m 3,1 km/h (1 Bft)
10.01.2019 20:00 -1,6 C 97 % 1023,6 hPa 0,0 l/m N-NO 0,00 h 0 W/m 3,3 km/h (1 Bft)
10.01.2019 21:00 -1,8 C 97 % 1023,9 hPa 0,0 l/m N 0,00 h 0 W/m 1,2 km/h (1 Bft)
10.01.2019 22:00 -2,1 C 97 % 1024,1 hPa 0,0 l/m N 0,00 h 0 W/m 0,0 km/h (0 Bft)
10.01.2019 23:00 -2,4 C 97 % 1024,3 hPa 0,0 l/m N 0,00 h 0 W/m 0,0 km/h (0 Bft)
11.01.2019 00:00 -2,4 C 97 % 1024,2 hPa 0,0 l/m N 0,00 h 0 W/m 0,0 km/h (0 Bft)
11.01.2019 01:00 -2,5 C 97 % 1024,2 hPa 0,0 l/m N 0,00 h 0 W/m 0,0 km/h (0 Bft)
11.01.2019 02:00 -2,7 C 97 % 1024,5 hPa 0,0 l/m N 0,00 h 0 W/m 0,0 km/h (0 Bft)
11.01.2019 03:00 -3,1 C 97 % 1024,9 hPa 0,0 l/m N 0,00 h 0 W/m 0,0 km/h (0 Bft)
11.01.2019 04:00 -4,3 C 96 % 1024,7 hPa 0,0 l/m N 0,00 h 0 W/m 0,0 km/h (0 Bft)
11.01.2019 05:00 -5,5 C 96 % 1024,9 hPa 0,0 l/m N 0,00 h 0 W/m 0,0 km/h (0 Bft)
11.01.2019 06:00 -5,7 C 96 % 1025,1 hPa 0,0 l/m N 0,00 h 0 W/m 0,0 km/h (0 Bft)
11.01.2019 07:00 -5,7 C 97 % 1025,4 hPa 0,0 l/m N 0,00 h 0 W/m 0,0 km/h (0 Bft)
11.01.2019 08:00 -5,6 C 97 % 1025,7 hPa 0,0 l/m N 0,00 h 7 W/m 0,0 km/h (0 Bft)
11.01.2019 09:00 -5,1 C 97 % 1025,8 hPa 0,0 l/m N 0,00 h 14 W/m 0,0 km/h (0 Bft)
11.01.2019 10:00 -3,8 C 98 % 1025,9 hPa 0,0 l/m N 0,00 h 23 W/m 0,0 km/h (0 Bft)
11.01.2019 11:00 -2,5 C 97 % 1025,7 hPa 0,0 l/m W 0,00 h 35 W/m 4,7 km/h (1 Bft)
11.01.2019 12:00 -2,0 C 96 % 1025,4 hPa 0,0 l/m W-SW 0,00 h 48 W/m 3,1 km/h (1 Bft)
11.01.2019 13:00 -1,8 C 94 % 1025,1 hPa 0,2 l/m W-SW 0,00 h 55 W/m 8,0 km/h (2 Bft)
11.01.2019 14:00 -1,9 C 93 % 1024,9 hPa 0,0 l/m SW 0,00 h 44 W/m 9,0 km/h (2 Bft)
11.01.2019 15:00 -1,9 C 94 % 1024,9 hPa 0,0 l/m SW 0,00 h 20 W/m 9,5 km/h (2 Bft)
11.01.2019 16:00 -2,2 C 95 % 1024,9 hPa 0,0 l/m W-SW 0,00 h 9 W/m 10,7 km/h (2 Bft)
11.01.2019 17:00 -2,5 C 95 % 1024,9 hPa 0,0 l/m W-SW 0,00 h 0 W/m 17,0 km/h (3 Bft)
11.01.2019 18:00 -2,6 C 96 % 1025,0 hPa 0,4 l/m W-SW 0,00 h 0 W/m 18,5 km/h (3 Bft)
11.01.2019 19:00 -2,6 C 97 % 1025,1 hPa 0,4 l/m SW 0,00 h 0 W/m 19,6 km/h (3 Bft)
11.01.2019 20:00 -2,7 C 97 % 1025,1 hPa 0,4 l/m SW 0,00 h 0 W/m 18,0 km/h (3 Bft)
11.01.2019 21:00 -2,4 C 97 % 1025,4 hPa 0,6 l/m SW 0,00 h 0 W/m 11,2 km/h (2 Bft)
11.01.2019 22:00 -2,3 C 98 % 1025,5 hPa 0,2 l/m SW 0,00 h 0 W/m 11,8 km/h (2 Bft)
11.01.2019 23:00 -2,1 C 98 % 1025,8 hPa 0,2 l/m SW 0,00 h 0 W/m 9,9 km/h (2 Bft)
12.01.2019 00:00 -1,9 C 98 % 1025,7 hPa 0,0 l/m SW 0,00 h 0 W/m 11,4 km/h (2 Bft)
12.01.2019 01:00 -1,8 C 98 % 1025,8 hPa 0,2 l/m S-SW 0,00 h 0 W/m 7,8 km/h (2 Bft)
12.01.2019 02:00 -1,6 C 98 % 1025,9 hPa 0,0 l/m S-SW 0,00 h 0 W/m 9,8 km/h (2 Bft)
12.01.2019 03:00 -1,5 C 98 % 1026,0 hPa 0,0 l/m S-SW 0,00 h 0 W/m 5,9 km/h (2 Bft)
12.01.2019 04:00 -1,4 C 98 % 1025,9 hPa 0,0 l/m S-SW 0,00 h 0 W/m 11,6 km/h (2 Bft)
12.01.2019 05:00 -1,2 C 98 % 1025,6 hPa 0,0 l/m S-SW 0,00 h 0 W/m 10,6 km/h (2 Bft)
12.01.2019 06:00 -1,1 C 98 % 1025,5 hPa 0,0 l/m S-SW 0,00 h 0 W/m 10,8 km/h (2 Bft)
12.01.2019 07:00 -1,0 C 98 % 1025,6 hPa 0,0 l/m SW 0,00 h 0 W/m 11,6 km/h (2 Bft)
12.01.2019 08:00 -0,8 C 99 % 1025,5 hPa 0,0 l/m SW 0,00 h 8 W/m 15,6 km/h (3 Bft)
12.01.2019 09:00 -0,4 C 99 % 1025,8 hPa 0,0 l/m W-SW 0,00 h 23 W/m 15,4 km/h (3 Bft)
12.01.2019 10:00 0,1 C 99 % 1025,6 hPa 0,0 l/m W-SW 0,00 h 44 W/m 14,2 km/h (3 Bft)
12.01.2019 11:00 0,5 C 99 % 1025,2 hPa 0,0 l/m SW 0,00 h 65 W/m 16,4 km/h (3 Bft)
12.01.2019 12:00 0,9 C 99 % 1024,3 hPa 0,0 l/m SW 0,17 h 125 W/m 16,2 km/h (3 Bft)
12.01.2019 13:00 1,3 C 98 % 1023,4 hPa 0,0 l/m W-SW 0,00 h 136 W/m 20,5 km/h (4 Bft)
12.01.2019 14:00 1,1 C 97 % 1022,4 hPa 0,0 l/m W-SW 0,00 h 98 W/m 20,8 km/h (4 Bft)
12.01.2019 15:00 1,0 C 97 % 1022,5 hPa 0,0 l/m W-SW 0,00 h 52 W/m 20,4 km/h (4 Bft)
12.01.2019 16:00 0,9 C 97 % 1021,7 hPa 0,0 l/m SW 0,00 h 12 W/m 23,1 km/h (4 Bft)
12.01.2019 17:00 1,1 C 97 % 1020,8 hPa 0,0 l/m W-SW 0,00 h 0 W/m 25,9 km/h (4 Bft)
12.01.2019 18:00 1,4 C 95 % 1020,3 hPa 0,0 l/m W-SW 0,00 h 0 W/m 29,5 km/h (5 Bft)
12.01.2019 19:00 1,5 C 94 % 1019,5 hPa 0,0 l/m W-SW 0,00 h 0 W/m 31,4 km/h (5 Bft)
12.01.2019 20:00 1,1 C 96 % 1018,7 hPa 0,4 l/m W-SW 0,00 h 0 W/m 28,6 km/h (4 Bft)
12.01.2019 21:00 1,0 C 97 % 1018,0 hPa 1,0 l/m W-SW 0,00 h 0 W/m 27,3 km/h (4 Bft)
12.01.2019 22:00 0,9 C 97 % 1017,2 hPa 0,8 l/m W-SW 0,00 h 0 W/m 35,0 km/h (5 Bft)
12.01.2019 23:00 0,9 C 98 % 1016,5 hPa 0,6 l/m W-SW 0,00 h 0 W/m 31,4 km/h (5 Bft)
13.01.2019 00:00 0,9 C 98 % 1015,7 hPa 0,6 l/m W-SW 0,00 h 0 W/m 28,2 km/h (4 Bft)
13.01.2019 01:00 0,9 C 98 % 1015,5 hPa 0,4 l/m W-SW 0,00 h 0 W/m 26,1 km/h (4 Bft)
13.01.2019 02:00 1,0 C 98 % 1015,1 hPa 0,8 l/m W 0,00 h 0 W/m 26,7 km/h (4 Bft)
13.01.2019 03:00 1,1 C 98 % 1015,5 hPa 0,4 l/m W-SW 0,00 h 0 W/m 21,0 km/h (4 Bft)
13.01.2019 04:00 1,3 C 98 % 1015,2 hPa 0,4 l/m W 0,00 h 0 W/m 18,4 km/h (3 Bft)
13.01.2019 05:00 1,3 C 98 % 1015,1 hPa 0,4 l/m W-SW 0,00 h 0 W/m 14,4 km/h (3 Bft)
13.01.2019 06:00 1,3 C 98 % 1014,8 hPa 0,4 l/m SW 0,00 h 0 W/m 15,3 km/h (3 Bft)
13.01.2019 07:00 1,3 C 98 % 1014,5 hPa 0,4 l/m SW 0,00 h 0 W/m 16,1 km/h (3 Bft)
13.01.2019 08:00 1,5 C 98 % 1014,0 hPa 0,2 l/m SW 0,08 h 18 W/m 21,0 km/h (4 Bft)
13.01.2019 09:00 1,8 C 98 % 1013,5 hPa 0,2 l/m W-SW 0,00 h 36 W/m 26,0 km/h (4 Bft)
13.01.2019 10:00 1,8 C 98 % 1013,2 hPa 0,8 l/m W-SW 0,00 h 49 W/m 25,8 km/h (4 Bft)
13.01.2019 11:00 1,4 C 98 % 1012,7 hPa 2,0 l/m SW 0,00 h 54 W/m 26,1 km/h (4 Bft)
13.01.2019 12:00 1,3 C 98 % 1011,6 hPa 1,6 l/m W-SW 0,00 h 71 W/m 31,9 km/h (5 Bft)
13.01.2019 13:00 1,4 C 98 % 1010,2 hPa 0,4 l/m W-SW 0,00 h 74 W/m 28,9 km/h (5 Bft)
13.01.2019 14:00 2,0 C 98 % 1009,3 hPa 0,4 l/m W-SW 0,00 h 63 W/m 32,9 km/h (5 Bft)
13.01.2019 15:00 2,4 C 98 % 1008,8 hPa 0,0 l/m W-SW 0,00 h 30 W/m 35,4 km/h (5 Bft)
13.01.2019 16:00 2,7 C 98 % 1008,0 hPa 0,0 l/m W-SW 0,00 h 10 W/m 35,5 km/h (5 Bft)
13.01.2019 17:00 3,1 C 98 % 1007,5 hPa 1,0 l/m SW 0,00 h 0 W/m 32,6 km/h (5 Bft)
13.01.2019 18:00 3,5 C 98 % 1006,6 hPa 0,6 l/m W 0,00 h 0 W/m 29,4 km/h (5 Bft)
13.01.2019 19:00 3,9 C 98 % 1005,6 hPa 0,0 l/m W-SW 0,00 h 0 W/m 30,6 km/h (5 Bft)
13.01.2019 20:00 4,3 C 98 % 1005,1 hPa 0,0 l/m W-SW 0,00 h 0 W/m 31,9 km/h (5 Bft)
13.01.2019 21:00 4,4 C 98 % 1004,1 hPa 0,0 l/m SW 0,00 h 0 W/m 29,8 km/h (5 Bft)
13.01.2019 22:00 4,6 C 97 % 1004,0 hPa 0,0 l/m W 0,00 h 0 W/m 22,5 km/h (4 Bft)
13.01.2019 23:00 4,6 C 97 % 1004,1 hPa 1,2 l/m W 0,00 h 0 W/m 22,0 km/h (4 Bft)
Min-Datum _ 11.01.19 08.01.19 13.01.19 - - - - 07.01.19
_ Min-Zeit 06:50 14:45 21:35 - - - - 00:00
Minimum _ -5,8 C 90 % 1003,5 hPa - - - - 0,0 km/h (0 Bft)
Max-Datum _ 13.01.19 07.01.19 07.01.19 13.01.19 - 07.01.19 07.01.19 13.01.19
_ Max-Zeit 22:25 04:30 10:35 11:00 - 11:25 13:25 14:25
Maximum _ 4,7 C 100 % 1033,3 hPa 2,0 l/m - 0,08 h 392 W/m 46,7 km/h
W-SW (6 Bft)
Durchschnitt _ 0,0 C 97 % 1020,5 hPa #31,8 l/m W-SW #2:40 h 57 W/m 13,7 km/h (3 Bft)